sensor_id;sensor_type;location;lat;lon;timestamp;temperature;humidity
53268;DHT22;39156;51.176;6.738;2023-08-07T00:00:41;13.20;84.70
53268;DHT22;39156;51.176;6.738;2023-08-07T00:03:07;13.20;84.90
53268;DHT22;39156;51.176;6.738;2023-08-07T00:05:33;13.20;85.00
53268;DHT22;39156;51.176;6.738;2023-08-07T00:07:59;13.10;84.90
53268;DHT22;39156;51.176;6.738;2023-08-07T00:10:24;13.20;85.10
53268;DHT22;39156;51.176;6.738;2023-08-07T00:12:50;13.20;85.20
53268;DHT22;39156;51.176;6.738;2023-08-07T00:15:16;13.10;85.30
53268;DHT22;39156;51.176;6.738;2023-08-07T00:17:42;13.20;85.50
53268;DHT22;39156;51.176;6.738;2023-08-07T00:20:08;13.10;85.70
53268;DHT22;39156;51.176;6.738;2023-08-07T00:22:34;13.00;85.90
53268;DHT22;39156;51.176;6.738;2023-08-07T00:24:59;13.10;85.90
53268;DHT22;39156;51.176;6.738;2023-08-07T00:27:25;13.10;86.20
53268;DHT22;39156;51.176;6.738;2023-08-07T00:29:51;13.10;86.20
53268;DHT22;39156;51.176;6.738;2023-08-07T00:32:17;13.00;86.20
53268;DHT22;39156;51.176;6.738;2023-08-07T00:34:43;12.90;86.10
53268;DHT22;39156;51.176;6.738;2023-08-07T00:37:08;13.00;86.20
53268;DHT22;39156;51.176;6.738;2023-08-07T00:39:34;13.00;86.40
53268;DHT22;39156;51.176;6.738;2023-08-07T00:42:00;12.90;86.50
53268;DHT22;39156;51.176;6.738;2023-08-07T00:44:26;12.80;86.50
53268;DHT22;39156;51.176;6.738;2023-08-07T00:46:51;12.90;86.60
53268;DHT22;39156;51.176;6.738;2023-08-07T00:49:18;12.90;86.90
53268;DHT22;39156;51.176;6.738;2023-08-07T00:51:44;12.90;86.90
53268;DHT22;39156;51.176;6.738;2023-08-07T00:54:12;12.90;87.00
53268;DHT22;39156;51.176;6.738;2023-08-07T00:56:40;12.80;87.20
53268;DHT22;39156;51.176;6.738;2023-08-07T00:59:06;12.90;87.50
53268;DHT22;39156;51.176;6.738;2023-08-07T01:01:32;12.90;87.60
53268;DHT22;39156;51.176;6.738;2023-08-07T01:03:58;12.80;87.50
53268;DHT22;39156;51.176;6.738;2023-08-07T01:06:24;12.80;87.30
53268;DHT22;39156;51.176;6.738;2023-08-07T01:08:50;12.80;87.60
53268;DHT22;39156;51.176;6.738;2023-08-07T01:14:33;12.70;88.10
53268;DHT22;39156;51.176;6.738;2023-08-07T01:17:16;12.70;88.20
53268;DHT22;39156;51.176;6.738;2023-08-07T01:19:42;12.70;88.10
53268;DHT22;39156;51.176;6.738;2023-08-07T01:22:15;12.70;87.90
53268;DHT22;39156;51.176;6.738;2023-08-07T01:24:44;12.70;88.20
53268;DHT22;39156;51.176;6.738;2023-08-07T01:29:55;12.70;88.00
53268;DHT22;39156;51.176;6.738;2023-08-07T01:32:54;12.60;87.90
53268;DHT22;39156;51.176;6.738;2023-08-07T01:35:32;12.70;88.00
53268;DHT22;39156;51.176;6.738;2023-08-07T01:37:59;12.70;87.60
53268;DHT22;39156;51.176;6.738;2023-08-07T01:40:27;12.70;87.30
53268;DHT22;39156;51.176;6.738;2023-08-07T01:42:54;12.70;87.30
53268;DHT22;39156;51.176;6.738;2023-08-07T01:45:24;12.70;87.30
53268;DHT22;39156;51.176;6.738;2023-08-07T01:47:50;12.70;87.60
53268;DHT22;39156;51.176;6.738;2023-08-07T01:50:18;12.70;87.60
53268;DHT22;39156;51.176;6.738;2023-08-07T01:52:45;12.80;87.80
53268;DHT22;39156;51.176;6.738;2023-08-07T01:55:13;12.70;87.80
53268;DHT22;39156;51.176;6.738;2023-08-07T01:57:39;12.70;87.50
53268;DHT22;39156;51.176;6.738;2023-08-07T02:00:05;12.70;87.60
53268;DHT22;39156;51.176;6.738;2023-08-07T02:02:31;12.60;87.70
53268;DHT22;39156;51.176;6.738;2023-08-07T02:04:57;12.80;87.80
53268;DHT22;39156;51.176;6.738;2023-08-07T02:07:23;12.70;87.70
53268;DHT22;39156;51.176;6.738;2023-08-07T02:09:48;12.70;87.70
53268;DHT22;39156;51.176;6.738;2023-08-07T02:12:15;12.70;87.60
53268;DHT22;39156;51.176;6.738;2023-08-07T02:14:41;12.70;87.90
53268;DHT22;39156;51.176;6.738;2023-08-07T02:17:07;12.70;87.50
53268;DHT22;39156;51.176;6.738;2023-08-07T02:19:32;12.70;87.60
53268;DHT22;39156;51.176;6.738;2023-08-07T02:21:58;12.70;87.80
53268;DHT22;39156;51.176;6.738;2023-08-07T02:24:24;12.70;87.70
53268;DHT22;39156;51.176;6.738;2023-08-07T02:26:49;12.60;88.00
53268;DHT22;39156;51.176;6.738;2023-08-07T02:29:15;12.60;88.10
53268;DHT22;39156;51.176;6.738;2023-08-07T02:31:41;12.60;88.00
53268;DHT22;39156;51.176;6.738;2023-08-07T02:34:06;12.60;88.10
53268;DHT22;39156;51.176;6.738;2023-08-07T02:36:32;12.50;88.00
53268;DHT22;39156;51.176;6.738;2023-08-07T02:38:58;12.50;88.30
53268;DHT22;39156;51.176;6.738;2023-08-07T02:41:23;12.50;88.30
53268;DHT22;39156;51.176;6.738;2023-08-07T02:43:49;12.40;88.30
53268;DHT22;39156;51.176;6.738;2023-08-07T02:46:15;12.40;88.60
53268;DHT22;39156;51.176;6.738;2023-08-07T02:48:40;12.50;88.80
53268;DHT22;39156;51.176;6.738;2023-08-07T02:51:06;12.50;88.80
53268;DHT22;39156;51.176;6.738;2023-08-07T02:53:32;12.40;89.00
53268;DHT22;39156;51.176;6.738;2023-08-07T02:55:57;12.40;88.90
53268;DHT22;39156;51.176;6.738;2023-08-07T02:58:23;12.40;89.00
53268;DHT22;39156;51.176;6.738;2023-08-07T03:00:49;12.40;89.10
53268;DHT22;39156;51.176;6.738;2023-08-07T03:03:14;12.40;89.10
53268;DHT22;39156;51.176;6.738;2023-08-07T03:05:50;12.40;89.00
53268;DHT22;39156;51.176;6.738;2023-08-07T03:08:17;12.40;89.30
53268;DHT22;39156;51.176;6.738;2023-08-07T03:10:56;12.40;89.00
53268;DHT22;39156;51.176;6.738;2023-08-07T03:13:26;12.40;89.30
53268;DHT22;39156;51.176;6.738;2023-08-07T03:15:59;12.40;89.00
53268;DHT22;39156;51.176;6.738;2023-08-07T03:18:29;12.40;89.30
53268;DHT22;39156;51.176;6.738;2023-08-07T03:20:56;12.40;89.00
53268;DHT22;39156;51.176;6.738;2023-08-07T03:23:23;12.50;89.00
53268;DHT22;39156;51.176;6.738;2023-08-07T03:25:49;12.30;88.80
53268;DHT22;39156;51.176;6.738;2023-08-07T03:28:16;12.40;88.90
53268;DHT22;39156;51.176;6.738;2023-08-07T03:30:42;12.40;88.90
53268;DHT22;39156;51.176;6.738;2023-08-07T03:33:09;12.40;88.80
53268;DHT22;39156;51.176;6.738;2023-08-07T03:35:35;12.40;88.80
53268;DHT22;39156;51.176;6.738;2023-08-07T03:38:01;12.40;88.70
53268;DHT22;39156;51.176;6.738;2023-08-07T03:40:27;12.40;88.60
53268;DHT22;39156;51.176;6.738;2023-08-07T03:42:52;12.40;88.80
53268;DHT22;39156;51.176;6.738;2023-08-07T03:45:18;12.40;88.90
53268;DHT22;39156;51.176;6.738;2023-08-07T03:47:44;12.40;88.90
53268;DHT22;39156;51.176;6.738;2023-08-07T03:50:09;12.40;88.90
53268;DHT22;39156;51.176;6.738;2023-08-07T03:52:35;12.40;89.00
53268;DHT22;39156;51.176;6.738;2023-08-07T03:55:01;12.30;89.20
53268;DHT22;39156;51.176;6.738;2023-08-07T03:57:26;12.40;89.10
53268;DHT22;39156;51.176;6.738;2023-08-07T03:59:52;12.30;88.90
53268;DHT22;39156;51.176;6.738;2023-08-07T04:02:19;12.40;88.90
53268;DHT22;39156;51.176;6.738;2023-08-07T04:04:45;12.40;88.90
53268;DHT22;39156;51.176;6.738;2023-08-07T04:07:10;12.40;88.80
53268;DHT22;39156;51.176;6.738;2023-08-07T04:09:36;12.40;88.90
53268;DHT22;39156;51.176;6.738;2023-08-07T04:12:02;12.40;88.80
53268;DHT22;39156;51.176;6.738;2023-08-07T04:14:28;12.40;88.70
53268;DHT22;39156;51.176;6.738;2023-08-07T04:16:54;12.40;88.80
53268;DHT22;39156;51.176;6.738;2023-08-07T04:19:20;12.40;88.70
53268;DHT22;39156;51.176;6.738;2023-08-07T04:21:46;12.30;88.70
53268;DHT22;39156;51.176;6.738;2023-08-07T04:24:11;12.40;88.80
53268;DHT22;39156;51.176;6.738;2023-08-07T04:26:38;12.40;88.80
53268;DHT22;39156;51.176;6.738;2023-08-07T04:29:04;12.40;88.80
53268;DHT22;39156;51.176;6.738;2023-08-07T04:31:29;12.40;88.50
53268;DHT22;39156;51.176;6.738;2023-08-07T04:33:58;12.40;88.80
53268;DHT22;39156;51.176;6.738;2023-08-07T04:36:24;12.40;88.50
53268;DHT22;39156;51.176;6.738;2023-08-07T04:38:50;12.50;88.70
53268;DHT22;39156;51.176;6.738;2023-08-07T04:41:16;12.40;88.60
53268;DHT22;39156;51.176;6.738;2023-08-07T04:43:42;12.40;88.60
53268;DHT22;39156;51.176;6.738;2023-08-07T04:46:10;12.40;88.80
53268;DHT22;39156;51.176;6.738;2023-08-07T04:48:37;12.60;88.80
53268;DHT22;39156;51.176;6.738;2023-08-07T04:51:03;12.40;88.80
53268;DHT22;39156;51.176;6.738;2023-08-07T04:53:28;12.50;88.80
53268;DHT22;39156;51.176;6.738;2023-08-07T04:55:54;12.40;88.90
53268;DHT22;39156;51.176;6.738;2023-08-07T04:58:20;12.40;88.80
53268;DHT22;39156;51.176;6.738;2023-08-07T05:00:45;12.40;88.70
53268;DHT22;39156;51.176;6.738;2023-08-07T05:03:11;12.50;89.00
53268;DHT22;39156;51.176;6.738;2023-08-07T05:05:37;12.50;88.90
53268;DHT22;39156;51.176;6.738;2023-08-07T05:08:03;12.50;89.10
53268;DHT22;39156;51.176;6.738;2023-08-07T05:10:28;12.50;89.10
53268;DHT22;39156;51.176;6.738;2023-08-07T05:12:54;12.50;89.10
53268;DHT22;39156;51.176;6.738;2023-08-07T05:15:25;12.50;89.10
53268;DHT22;39156;51.176;6.738;2023-08-07T05:17:51;12.50;89.00
53268;DHT22;39156;51.176;6.738;2023-08-07T05:20:17;12.50;89.00
53268;DHT22;39156;51.176;6.738;2023-08-07T05:22:43;12.50;89.00
53268;DHT22;39156;51.176;6.738;2023-08-07T05:25:09;12.60;89.00
53268;DHT22;39156;51.176;6.738;2023-08-07T05:27:36;12.60;88.90
53268;DHT22;39156;51.176;6.738;2023-08-07T05:30:03;12.60;88.70
53268;DHT22;39156;51.176;6.738;2023-08-07T05:32:29;12.60;88.80
53268;DHT22;39156;51.176;6.738;2023-08-07T05:34:55;12.60;88.80
53268;DHT22;39156;51.176;6.738;2023-08-07T05:37:22;12.60;88.70
53268;DHT22;39156;51.176;6.738;2023-08-07T05:39:47;12.60;88.80
53268;DHT22;39156;51.176;6.738;2023-08-07T05:42:13;12.60;88.40
53268;DHT22;39156;51.176;6.738;2023-08-07T05:44:39;12.70;88.20
53268;DHT22;39156;51.176;6.738;2023-08-07T05:47:05;12.60;88.40
53268;DHT22;39156;51.176;6.738;2023-08-07T05:49:31;12.60;88.40
53268;DHT22;39156;51.176;6.738;2023-08-07T05:51:57;12.60;88.60
53268;DHT22;39156;51.176;6.738;2023-08-07T05:54:23;12.60;88.60
53268;DHT22;39156;51.176;6.738;2023-08-07T05:56:48;12.60;88.60
53268;DHT22;39156;51.176;6.738;2023-08-07T05:59:14;12.60;88.70
53268;DHT22;39156;51.176;6.738;2023-08-07T06:01:40;12.50;88.60
53268;DHT22;39156;51.176;6.738;2023-08-07T06:04:06;12.60;88.70
53268;DHT22;39156;51.176;6.738;2023-08-07T06:06:32;12.50;88.80
53268;DHT22;39156;51.176;6.738;2023-08-07T06:09:00;12.60;88.70
53268;DHT22;39156;51.176;6.738;2023-08-07T06:11:26;12.60;88.80
53268;DHT22;39156;51.176;6.738;2023-08-07T06:13:52;12.50;88.90
53268;DHT22;39156;51.176;6.738;2023-08-07T06:16:18;12.60;89.10
53268;DHT22;39156;51.176;6.738;2023-08-07T06:18:44;12.60;89.00
53268;DHT22;39156;51.176;6.738;2023-08-07T06:21:09;12.60;88.80
53268;DHT22;39156;51.176;6.738;2023-08-07T06:23:36;12.50;88.90
53268;DHT22;39156;51.176;6.738;2023-08-07T06:26:02;12.60;88.90
53268;DHT22;39156;51.176;6.738;2023-08-07T06:28:33;12.60;88.80
53268;DHT22;39156;51.176;6.738;2023-08-07T06:31:05;12.50;88.90
53268;DHT22;39156;51.176;6.738;2023-08-07T06:33:32;12.60;89.10
53268;DHT22;39156;51.176;6.738;2023-08-07T06:35:59;12.50;89.20
53268;DHT22;39156;51.176;6.738;2023-08-07T06:38:25;12.50;90.00
53268;DHT22;39156;51.176;6.738;2023-08-07T06:40:51;12.50;89.30
53268;DHT22;39156;51.176;6.738;2023-08-07T06:43:16;12.50;89.40
53268;DHT22;39156;51.176;6.738;2023-08-07T06:45:42;12.60;89.60
53268;DHT22;39156;51.176;6.738;2023-08-07T06:48:08;12.60;89.80
53268;DHT22;39156;51.176;6.738;2023-08-07T06:50:34;12.50;89.80
53268;DHT22;39156;51.176;6.738;2023-08-07T06:52:59;12.50;89.70
53268;DHT22;39156;51.176;6.738;2023-08-07T06:55:26;12.50;89.60
53268;DHT22;39156;51.176;6.738;2023-08-07T06:57:51;12.50;89.80
53268;DHT22;39156;51.176;6.738;2023-08-07T07:00:17;12.50;89.80
53268;DHT22;39156;51.176;6.738;2023-08-07T07:02:43;12.50;90.00
53268;DHT22;39156;51.176;6.738;2023-08-07T07:05:08;12.40;90.00
53268;DHT22;39156;51.176;6.738;2023-08-07T07:07:35;12.40;90.10
53268;DHT22;39156;51.176;6.738;2023-08-07T07:10:00;12.40;90.10
53268;DHT22;39156;51.176;6.738;2023-08-07T07:12:27;12.40;90.10
53268;DHT22;39156;51.176;6.738;2023-08-07T07:14:53;12.50;90.10
53268;DHT22;39156;51.176;6.738;2023-08-07T07:17:18;12.40;90.10
53268;DHT22;39156;51.176;6.738;2023-08-07T07:19:44;12.50;90.10
53268;DHT22;39156;51.176;6.738;2023-08-07T07:22:10;12.50;90.10
53268;DHT22;39156;51.176;6.738;2023-08-07T07:24:36;12.40;90.10
53268;DHT22;39156;51.176;6.738;2023-08-07T07:27:01;12.50;90.20
53268;DHT22;39156;51.176;6.738;2023-08-07T07:29:28;12.50;90.20
53268;DHT22;39156;51.176;6.738;2023-08-07T07:31:54;12.50;90.20
53268;DHT22;39156;51.176;6.738;2023-08-07T07:34:20;12.60;90.10
53268;DHT22;39156;51.176;6.738;2023-08-07T07:36:46;12.50;90.10
53268;DHT22;39156;51.176;6.738;2023-08-07T07:39:12;12.50;90.10
53268;DHT22;39156;51.176;6.738;2023-08-07T07:41:38;12.60;90.30
53268;DHT22;39156;51.176;6.738;2023-08-07T07:44:04;12.50;90.30
53268;DHT22;39156;51.176;6.738;2023-08-07T07:46:30;12.60;90.30
53268;DHT22;39156;51.176;6.738;2023-08-07T07:48:57;12.60;90.30
53268;DHT22;39156;51.176;6.738;2023-08-07T07:51:23;12.60;90.30
53268;DHT22;39156;51.176;6.738;2023-08-07T07:53:49;12.70;90.20
53268;DHT22;39156;51.176;6.738;2023-08-07T07:56:15;12.70;90.10
53268;DHT22;39156;51.176;6.738;2023-08-07T07:58:40;12.80;90.20
53268;DHT22;39156;51.176;6.738;2023-08-07T08:01:07;12.80;90.10
53268;DHT22;39156;51.176;6.738;2023-08-07T08:03:33;12.80;90.20
53268;DHT22;39156;51.176;6.738;2023-08-07T08:05:59;12.90;90.10
53268;DHT22;39156;51.176;6.738;2023-08-07T08:08:25;12.90;90.00
53268;DHT22;39156;51.176;6.738;2023-08-07T08:10:51;12.90;90.00
53268;DHT22;39156;51.176;6.738;2023-08-07T08:13:17;12.90;90.00
53268;DHT22;39156;51.176;6.738;2023-08-07T08:15:44;13.00;90.00
53268;DHT22;39156;51.176;6.738;2023-08-07T08:18:10;13.00;90.10
53268;DHT22;39156;51.176;6.738;2023-08-07T08:20:37;13.10;90.00
53268;DHT22;39156;51.176;6.738;2023-08-07T08:23:03;13.10;90.00
53268;DHT22;39156;51.176;6.738;2023-08-07T08:25:30;13.10;90.00
53268;DHT22;39156;51.176;6.738;2023-08-07T08:27:56;13.20;90.10
53268;DHT22;39156;51.176;6.738;2023-08-07T08:30:22;13.20;90.00
53268;DHT22;39156;51.176;6.738;2023-08-07T08:32:48;13.30;90.00
53268;DHT22;39156;51.176;6.738;2023-08-07T08:35:14;13.30;89.90
53268;DHT22;39156;51.176;6.738;2023-08-07T08:37:40;13.40;89.90
53268;DHT22;39156;51.176;6.738;2023-08-07T08:40:07;13.50;89.80
53268;DHT22;39156;51.176;6.738;2023-08-07T08:42:35;13.40;89.10
53268;DHT22;39156;51.176;6.738;2023-08-07T08:45:03;13.40;88.90
53268;DHT22;39156;51.176;6.738;2023-08-07T08:47:32;13.40;88.70
53268;DHT22;39156;51.176;6.738;2023-08-07T08:50:02;13.40;88.80
53268;DHT22;39156;51.176;6.738;2023-08-07T08:52:32;13.30;89.10
53268;DHT22;39156;51.176;6.738;2023-08-07T08:55:01;13.30;89.30
53268;DHT22;39156;51.176;6.738;2023-08-07T08:57:27;13.30;89.20
53268;DHT22;39156;51.176;6.738;2023-08-07T08:59:56;13.30;89.10
53268;DHT22;39156;51.176;6.738;2023-08-07T09:02:22;13.10;89.40
53268;DHT22;39156;51.176;6.738;2023-08-07T09:04:48;13.20;89.70
53268;DHT22;39156;51.176;6.738;2023-08-07T09:07:15;13.30;90.20
53268;DHT22;39156;51.176;6.738;2023-08-07T09:09:44;13.40;90.60
53268;DHT22;39156;51.176;6.738;2023-08-07T09:12:16;13.40;90.70
53268;DHT22;39156;51.176;6.738;2023-08-07T09:14:50;13.60;90.90
53268;DHT22;39156;51.176;6.738;2023-08-07T09:17:25;13.70;91.10
53268;DHT22;39156;51.176;6.738;2023-08-07T09:19:53;14.10;91.00
53268;DHT22;39156;51.176;6.738;2023-08-07T09:22:19;14.30;91.40
53268;DHT22;39156;51.176;6.738;2023-08-07T09:24:45;14.80;91.20
53268;DHT22;39156;51.176;6.738;2023-08-07T09:27:12;15.20;91.20
53268;DHT22;39156;51.176;6.738;2023-08-07T09:29:43;15.60;90.30
53268;DHT22;39156;51.176;6.738;2023-08-07T09:32:12;16.00;87.70
53268;DHT22;39156;51.176;6.738;2023-08-07T09:34:42;16.30;86.90
53268;DHT22;39156;51.176;6.738;2023-08-07T09:37:08;16.50;84.70
53268;DHT22;39156;51.176;6.738;2023-08-07T09:39:37;16.70;84.50
53268;DHT22;39156;51.176;6.738;2023-08-07T09:42:04;16.80;83.30
53268;DHT22;39156;51.176;6.738;2023-08-07T09:44:36;16.90;82.20
53268;DHT22;39156;51.176;6.738;2023-08-07T09:47:14;17.00;80.00
53268;DHT22;39156;51.176;6.738;2023-08-07T09:49:43;17.00;79.50
53268;DHT22;39156;51.176;6.738;2023-08-07T09:52:11;17.10;81.20
53268;DHT22;39156;51.176;6.738;2023-08-07T09:54:41;17.20;80.90
53268;DHT22;39156;51.176;6.738;2023-08-07T09:57:07;17.30;81.30
53268;DHT22;39156;51.176;6.738;2023-08-07T09:59:33;17.60;81.80
53268;DHT22;39156;51.176;6.738;2023-08-07T10:02:02;17.90;81.20
53268;DHT22;39156;51.176;6.738;2023-08-07T10:04:29;18.10;81.60
53268;DHT22;39156;51.176;6.738;2023-08-07T10:06:56;18.40;79.20
53268;DHT22;39156;51.176;6.738;2023-08-07T10:09:22;18.60;78.30
53268;DHT22;39156;51.176;6.738;2023-08-07T10:11:49;18.70;81.50
53268;DHT22;39156;51.176;6.738;2023-08-07T10:14:16;18.90;78.10
53268;DHT22;39156;51.176;6.738;2023-08-07T10:16:42;19.10;76.70
53268;DHT22;39156;51.176;6.738;2023-08-07T10:19:09;19.30;75.40
53268;DHT22;39156;51.176;6.738;2023-08-07T10:21:41;19.40;73.90
53268;DHT22;39156;51.176;6.738;2023-08-07T10:24:09;19.50;72.90
53268;DHT22;39156;51.176;6.738;2023-08-07T10:26:43;19.70;71.80
53268;DHT22;39156;51.176;6.738;2023-08-07T10:29:13;19.70;70.50
53268;DHT22;39156;51.176;6.738;2023-08-07T10:31:40;19.80;70.70
53268;DHT22;39156;51.176;6.738;2023-08-07T10:34:08;19.80;71.10
53268;DHT22;39156;51.176;6.738;2023-08-07T10:36:35;19.80;69.30
53268;DHT22;39156;51.176;6.738;2023-08-07T10:39:11;19.80;69.20
53268;DHT22;39156;51.176;6.738;2023-08-07T10:41:45;19.70;68.80
53268;DHT22;39156;51.176;6.738;2023-08-07T10:44:22;19.80;69.10
53268;DHT22;39156;51.176;6.738;2023-08-07T10:46:54;19.70;66.80
53268;DHT22;39156;51.176;6.738;2023-08-07T10:52:03;19.80;67.50
53268;DHT22;39156;51.176;6.738;2023-08-07T10:54:44;19.80;67.10
53268;DHT22;39156;51.176;6.738;2023-08-07T10:57:12;19.80;66.10
53268;DHT22;39156;51.176;6.738;2023-08-07T11:00:04;19.80;65.40
53268;DHT22;39156;51.176;6.738;2023-08-07T11:02:37;19.80;63.90
53268;DHT22;39156;51.176;6.738;2023-08-07T11:05:06;19.80;64.80
53268;DHT22;39156;51.176;6.738;2023-08-07T11:07:32;19.80;65.30
53268;DHT22;39156;51.176;6.738;2023-08-07T11:09:59;19.70;63.80
53268;DHT22;39156;51.176;6.738;2023-08-07T11:12:25;19.70;63.20
53268;DHT22;39156;51.176;6.738;2023-08-07T11:14:55;19.80;67.90
53268;DHT22;39156;51.176;6.738;2023-08-07T11:17:25;19.70;62.90
53268;DHT22;39156;51.176;6.738;2023-08-07T11:19:55;19.70;63.10
53268;DHT22;39156;51.176;6.738;2023-08-07T11:22:21;19.80;62.40
53268;DHT22;39156;51.176;6.738;2023-08-07T11:24:47;19.90;61.70
53268;DHT22;39156;51.176;6.738;2023-08-07T11:27:14;19.80;61.10
53268;DHT22;39156;51.176;6.738;2023-08-07T11:29:39;19.80;62.70
53268;DHT22;39156;51.176;6.738;2023-08-07T11:32:05;19.80;60.50
53268;DHT22;39156;51.176;6.738;2023-08-07T11:34:32;19.80;60.20
53268;DHT22;39156;51.176;6.738;2023-08-07T11:36:57;19.70;59.00
53268;DHT22;39156;51.176;6.738;2023-08-07T11:39:23;19.70;59.10
53268;DHT22;39156;51.176;6.738;2023-08-07T11:41:53;19.70;59.50
53268;DHT22;39156;51.176;6.738;2023-08-07T11:44:19;19.70;58.70
53268;DHT22;39156;51.176;6.738;2023-08-07T11:46:45;19.70;59.10
53268;DHT22;39156;51.176;6.738;2023-08-07T11:49:10;19.70;59.30
53268;DHT22;39156;51.176;6.738;2023-08-07T11:51:37;19.80;58.90
53268;DHT22;39156;51.176;6.738;2023-08-07T11:54:03;19.90;58.30
53268;DHT22;39156;51.176;6.738;2023-08-07T11:56:29;20.00;59.20
53268;DHT22;39156;51.176;6.738;2023-08-07T11:58:56;20.10;59.00
53268;DHT22;39156;51.176;6.738;2023-08-07T12:01:24;20.20;59.30
53268;DHT22;39156;51.176;6.738;2023-08-07T12:06:30;20.40;57.20
53268;DHT22;39156;51.176;6.738;2023-08-07T12:08:56;20.50;56.10
53268;DHT22;39156;51.176;6.738;2023-08-07T12:11:22;20.50;55.70
53268;DHT22;39156;51.176;6.738;2023-08-07T12:13:48;20.60;59.90
53268;DHT22;39156;51.176;6.738;2023-08-07T12:16:15;20.60;56.40
53268;DHT22;39156;51.176;6.738;2023-08-07T12:18:46;20.60;55.40
53268;DHT22;39156;51.176;6.738;2023-08-07T12:21:17;20.70;53.90
53268;DHT22;39156;51.176;6.738;2023-08-07T12:23:49;20.70;54.20
53268;DHT22;39156;51.176;6.738;2023-08-07T12:26:17;20.70;55.00
53268;DHT22;39156;51.176;6.738;2023-08-07T12:28:43;20.70;54.10
53268;DHT22;39156;51.176;6.738;2023-08-07T12:31:09;20.80;55.00
53268;DHT22;39156;51.176;6.738;2023-08-07T12:33:35;20.90;54.60
53268;DHT22;39156;51.176;6.738;2023-08-07T12:36:01;20.90;53.90
53268;DHT22;39156;51.176;6.738;2023-08-07T12:38:27;21.00;53.60
53268;DHT22;39156;51.176;6.738;2023-08-07T12:40:53;21.00;55.50
53268;DHT22;39156;51.176;6.738;2023-08-07T12:43:19;21.10;53.10
53268;DHT22;39156;51.176;6.738;2023-08-07T12:45:45;21.10;53.00
53268;DHT22;39156;51.176;6.738;2023-08-07T12:48:10;21.10;53.50
53268;DHT22;39156;51.176;6.738;2023-08-07T12:50:36;21.10;51.70
53268;DHT22;39156;51.176;6.738;2023-08-07T12:53:02;21.20;52.40
53268;DHT22;39156;51.176;6.738;2023-08-07T12:55:28;21.20;50.90
53268;DHT22;39156;51.176;6.738;2023-08-07T12:57:55;21.20;49.70
53268;DHT22;39156;51.176;6.738;2023-08-07T13:00:21;21.20;49.60
53268;DHT22;39156;51.176;6.738;2023-08-07T13:02:48;21.10;50.10
53268;DHT22;39156;51.176;6.738;2023-08-07T13:05:15;21.20;49.40
53268;DHT22;39156;51.176;6.738;2023-08-07T13:07:46;21.10;49.80
53268;DHT22;39156;51.176;6.738;2023-08-07T13:10:14;21.10;49.70
53268;DHT22;39156;51.176;6.738;2023-08-07T13:12:42;21.10;49.50
53268;DHT22;39156;51.176;6.738;2023-08-07T13:15:12;21.10;49.70
53268;DHT22;39156;51.176;6.738;2023-08-07T13:17:40;21.10;49.30
53268;DHT22;39156;51.176;6.738;2023-08-07T13:20:06;21.10;49.50
53268;DHT22;39156;51.176;6.738;2023-08-07T13:22:37;21.10;49.10
53268;DHT22;39156;51.176;6.738;2023-08-07T13:25:04;21.10;48.80
53268;DHT22;39156;51.176;6.738;2023-08-07T13:27:33;21.00;49.00
53268;DHT22;39156;51.176;6.738;2023-08-07T13:30:00;21.00;49.40
53268;DHT22;39156;51.176;6.738;2023-08-07T13:32:26;21.00;48.70
53268;DHT22;39156;51.176;6.738;2023-08-07T13:34:52;21.00;48.10
53268;DHT22;39156;51.176;6.738;2023-08-07T13:37:19;21.00;49.20
53268;DHT22;39156;51.176;6.738;2023-08-07T13:39:44;21.00;51.60
53268;DHT22;39156;51.176;6.738;2023-08-07T13:42:11;21.00;49.50
53268;DHT22;39156;51.176;6.738;2023-08-07T13:44:37;21.00;49.90
53268;DHT22;39156;51.176;6.738;2023-08-07T13:47:04;21.00;49.50
53268;DHT22;39156;51.176;6.738;2023-08-07T13:49:30;21.10;50.10
53268;DHT22;39156;51.176;6.738;2023-08-07T13:51:56;21.10;49.40
53268;DHT22;39156;51.176;6.738;2023-08-07T13:54:22;21.20;48.70
53268;DHT22;39156;51.176;6.738;2023-08-07T13:56:47;21.20;48.90
53268;DHT22;39156;51.176;6.738;2023-08-07T13:59:13;21.20;49.10
53268;DHT22;39156;51.176;6.738;2023-08-07T14:01:39;21.20;48.90
53268;DHT22;39156;51.176;6.738;2023-08-07T14:04:05;21.10;48.70
53268;DHT22;39156;51.176;6.738;2023-08-07T14:06:31;21.10;49.10
53268;DHT22;39156;51.176;6.738;2023-08-07T14:08:57;21.10;49.30
53268;DHT22;39156;51.176;6.738;2023-08-07T14:11:23;21.10;49.60
53268;DHT22;39156;51.176;6.738;2023-08-07T14:13:53;21.10;50.10
53268;DHT22;39156;51.176;6.738;2023-08-07T14:16:18;21.00;50.00
53268;DHT22;39156;51.176;6.738;2023-08-07T14:18:44;21.00;50.20
53268;DHT22;39156;51.176;6.738;2023-08-07T14:21:10;21.00;50.60
53268;DHT22;39156;51.176;6.738;2023-08-07T14:23:35;21.00;50.70
53268;DHT22;39156;51.176;6.738;2023-08-07T14:26:02;21.00;51.20
53268;DHT22;39156;51.176;6.738;2023-08-07T14:28:27;21.00;51.30
53268;DHT22;39156;51.176;6.738;2023-08-07T14:30:56;21.00;52.10
53268;DHT22;39156;51.176;6.738;2023-08-07T14:33:26;21.00;51.70
53268;DHT22;39156;51.176;6.738;2023-08-07T14:35:54;21.00;51.50
53268;DHT22;39156;51.176;6.738;2023-08-07T14:38:20;21.00;51.60
53268;DHT22;39156;51.176;6.738;2023-08-07T14:40:46;21.00;51.70
53268;DHT22;39156;51.176;6.738;2023-08-07T14:43:11;21.00;52.00
53268;DHT22;39156;51.176;6.738;2023-08-07T14:45:38;20.90;51.80
53268;DHT22;39156;51.176;6.738;2023-08-07T14:48:03;20.90;52.00
53268;DHT22;39156;51.176;6.738;2023-08-07T14:50:29;20.90;52.50
53268;DHT22;39156;51.176;6.738;2023-08-07T14:52:55;20.80;52.70
53268;DHT22;39156;51.176;6.738;2023-08-07T14:55:21;20.90;52.50
53268;DHT22;39156;51.176;6.738;2023-08-07T14:57:46;21.00;52.50
53268;DHT22;39156;51.176;6.738;2023-08-07T15:00:13;20.90;52.30
53268;DHT22;39156;51.176;6.738;2023-08-07T15:02:39;20.90;52.10
53268;DHT22;39156;51.176;6.738;2023-08-07T15:05:05;20.90;53.30
53268;DHT22;39156;51.176;6.738;2023-08-07T15:07:31;20.80;52.10
53268;DHT22;39156;51.176;6.738;2023-08-07T15:09:57;20.80;52.10
53268;DHT22;39156;51.176;6.738;2023-08-07T15:12:23;20.70;52.50
53268;DHT22;39156;51.176;6.738;2023-08-07T15:14:49;20.60;52.90
53268;DHT22;39156;51.176;6.738;2023-08-07T15:17:15;20.60;52.60
53268;DHT22;39156;51.176;6.738;2023-08-07T15:19:40;20.50;52.90
53268;DHT22;39156;51.176;6.738;2023-08-07T15:22:06;20.40;53.10
53268;DHT22;39156;51.176;6.738;2023-08-07T15:24:32;20.40;53.70
53268;DHT22;39156;51.176;6.738;2023-08-07T15:26:58;20.40;53.70
53268;DHT22;39156;51.176;6.738;2023-08-07T15:29:23;20.30;53.80
53268;DHT22;39156;51.176;6.738;2023-08-07T15:31:49;20.30;54.20
53268;DHT22;39156;51.176;6.738;2023-08-07T15:34:15;20.40;53.70
53268;DHT22;39156;51.176;6.738;2023-08-07T15:36:40;20.30;53.80
53268;DHT22;39156;51.176;6.738;2023-08-07T15:39:06;20.40;54.60